sensor_id;sensor_type;location;lat;lon;timestamp;temperature;humidity
38359;DHT22;42072;48.044;14.416;2023-04-15T00:01:53;5.90;99.90
38359;DHT22;42072;48.044;14.416;2023-04-15T00:04:20;5.90;99.90
38359;DHT22;42072;48.044;14.416;2023-04-15T00:06:52;5.90;99.90
38359;DHT22;42072;48.044;14.416;2023-04-15T00:09:20;5.90;99.90
38359;DHT22;42072;48.044;14.416;2023-04-15T00:11:49;5.90;99.90
38359;DHT22;42072;48.044;14.416;2023-04-15T00:14:17;5.90;99.90
38359;DHT22;42072;48.044;14.416;2023-04-15T00:16:44;5.80;99.90
38359;DHT22;42072;48.044;14.416;2023-04-15T00:19:11;5.80;99.90
38359;DHT22;42072;48.044;14.416;2023-04-15T00:21:38;5.80;99.90
38359;DHT22;42072;48.044;14.416;2023-04-15T00:24:06;5.80;99.90
38359;DHT22;42072;48.044;14.416;2023-04-15T00:26:34;5.80;99.90
38359;DHT22;42072;48.044;14.416;2023-04-15T00:29:01;5.80;99.90
38359;DHT22;42072;48.044;14.416;2023-04-15T00:31:29;5.80;99.90
38359;DHT22;42072;48.044;14.416;2023-04-15T00:33:57;5.80;99.90
38359;DHT22;42072;48.044;14.416;2023-04-15T00:36:24;5.80;99.90
38359;DHT22;42072;48.044;14.416;2023-04-15T00:38:52;5.80;99.90
38359;DHT22;42072;48.044;14.416;2023-04-15T00:41:20;5.80;99.90
38359;DHT22;42072;48.044;14.416;2023-04-15T00:43:47;5.80;99.90
38359;DHT22;42072;48.044;14.416;2023-04-15T00:46:15;5.80;99.90
38359;DHT22;42072;48.044;14.416;2023-04-15T00:48:44;5.80;99.90
38359;DHT22;42072;48.044;14.416;2023-04-15T00:51:12;5.80;99.90
38359;DHT22;42072;48.044;14.416;2023-04-15T00:53:40;5.80;99.90
38359;DHT22;42072;48.044;14.416;2023-04-15T00:56:08;5.80;99.90
38359;DHT22;42072;48.044;14.416;2023-04-15T00:58:35;5.80;99.90
38359;DHT22;42072;48.044;14.416;2023-04-15T01:01:03;5.80;99.90
38359;DHT22;42072;48.044;14.416;2023-04-15T01:03:30;5.80;99.90
38359;DHT22;42072;48.044;14.416;2023-04-15T01:05:59;5.70;99.90
38359;DHT22;42072;48.044;14.416;2023-04-15T01:08:30;5.70;99.90
38359;DHT22;42072;48.044;14.416;2023-04-15T01:11:00;5.70;99.90
38359;DHT22;42072;48.044;14.416;2023-04-15T01:13:28;5.70;99.90
38359;DHT22;42072;48.044;14.416;2023-04-15T01:15:56;5.70;99.90
38359;DHT22;42072;48.044;14.416;2023-04-15T01:18:25;5.70;99.90
38359;DHT22;42072;48.044;14.416;2023-04-15T01:20:53;5.70;99.90
38359;DHT22;42072;48.044;14.416;2023-04-15T01:23:20;5.70;99.90
38359;DHT22;42072;48.044;14.416;2023-04-15T01:25:49;5.60;99.90
38359;DHT22;42072;48.044;14.416;2023-04-15T01:28:17;5.60;99.90
38359;DHT22;42072;48.044;14.416;2023-04-15T01:30:44;5.60;99.90
38359;DHT22;42072;48.044;14.416;2023-04-15T01:33:12;5.60;99.90
38359;DHT22;42072;48.044;14.416;2023-04-15T01:35:39;5.60;99.90
38359;DHT22;42072;48.044;14.416;2023-04-15T01:38:09;5.60;99.90
38359;DHT22;42072;48.044;14.416;2023-04-15T01:40:37;5.60;99.90
38359;DHT22;42072;48.044;14.416;2023-04-15T01:43:04;5.50;99.90
38359;DHT22;42072;48.044;14.416;2023-04-15T01:45:31;5.50;99.90
38359;DHT22;42072;48.044;14.416;2023-04-15T01:47:59;5.50;99.90
38359;DHT22;42072;48.044;14.416;2023-04-15T01:50:26;5.50;99.90
38359;DHT22;42072;48.044;14.416;2023-04-15T01:52:54;5.50;99.90
38359;DHT22;42072;48.044;14.416;2023-04-15T01:55:23;5.50;99.90
38359;DHT22;42072;48.044;14.416;2023-04-15T01:57:50;5.50;99.90
38359;DHT22;42072;48.044;14.416;2023-04-15T02:00:18;5.50;99.90
38359;DHT22;42072;48.044;14.416;2023-04-15T02:02:45;5.60;99.90
38359;DHT22;42072;48.044;14.416;2023-04-15T02:05:12;5.50;99.90
38359;DHT22;42072;48.044;14.416;2023-04-15T02:07:43;5.60;99.90
38359;DHT22;42072;48.044;14.416;2023-04-15T02:10:11;5.50;99.90
38359;DHT22;42072;48.044;14.416;2023-04-15T02:12:39;5.50;99.90
38359;DHT22;42072;48.044;14.416;2023-04-15T02:15:07;5.50;94.10
38359;DHT22;42072;48.044;14.416;2023-04-15T02:17:35;5.50;95.00
38359;DHT22;42072;48.044;14.416;2023-04-15T02:20:04;5.40;99.90
38359;DHT22;42072;48.044;14.416;2023-04-15T02:22:37;5.40;99.90
38359;DHT22;42072;48.044;14.416;2023-04-15T02:25:05;5.40;99.90
38359;DHT22;42072;48.044;14.416;2023-04-15T02:27:33;5.50;99.90
38359;DHT22;42072;48.044;14.416;2023-04-15T02:30:00;5.40;99.90
38359;DHT22;42072;48.044;14.416;2023-04-15T02:32:27;5.40;99.90
38359;DHT22;42072;48.044;14.416;2023-04-15T02:34:55;5.40;99.90
38359;DHT22;42072;48.044;14.416;2023-04-15T02:37:22;5.40;99.90
38359;DHT22;42072;48.044;14.416;2023-04-15T02:39:50;5.40;99.90
38359;DHT22;42072;48.044;14.416;2023-04-15T02:42:17;5.40;99.90
38359;DHT22;42072;48.044;14.416;2023-04-15T02:44:45;5.40;99.90
38359;DHT22;42072;48.044;14.416;2023-04-15T02:47:12;5.30;99.90
38359;DHT22;42072;48.044;14.416;2023-04-15T02:49:40;5.30;99.90
38359;DHT22;42072;48.044;14.416;2023-04-15T02:52:07;5.30;99.90
38359;DHT22;42072;48.044;14.416;2023-04-15T02:54:36;5.30;99.90
38359;DHT22;42072;48.044;14.416;2023-04-15T02:57:03;5.30;99.90
38359;DHT22;42072;48.044;14.416;2023-04-15T02:59:32;5.30;99.90
38359;DHT22;42072;48.044;14.416;2023-04-15T03:01:59;5.30;99.90
38359;DHT22;42072;48.044;14.416;2023-04-15T03:04:27;5.30;99.90
38359;DHT22;42072;48.044;14.416;2023-04-15T03:06:56;5.40;99.90
38359;DHT22;42072;48.044;14.416;2023-04-15T03:09:23;5.40;99.90
38359;DHT22;42072;48.044;14.416;2023-04-15T03:11:50;5.40;99.90
38359;DHT22;42072;48.044;14.416;2023-04-15T03:14:19;5.40;99.90
38359;DHT22;42072;48.044;14.416;2023-04-15T03:16:46;5.40;99.90
38359;DHT22;42072;48.044;14.416;2023-04-15T03:19:13;5.40;99.90
38359;DHT22;42072;48.044;14.416;2023-04-15T03:21:41;5.40;99.90
38359;DHT22;42072;48.044;14.416;2023-04-15T03:24:08;5.50;99.90
38359;DHT22;42072;48.044;14.416;2023-04-15T03:26:36;5.50;99.90
38359;DHT22;42072;48.044;14.416;2023-04-15T03:29:03;5.50;99.90
38359;DHT22;42072;48.044;14.416;2023-04-15T03:31:30;5.40;99.90
38359;DHT22;42072;48.044;14.416;2023-04-15T03:33:58;5.40;99.90
38359;DHT22;42072;48.044;14.416;2023-04-15T03:36:25;5.40;69.20
38359;DHT22;42072;48.044;14.416;2023-04-15T03:38:53;5.30;61.50
38359;DHT22;42072;48.044;14.416;2023-04-15T03:41:20;5.30;94.80
38359;DHT22;42072;48.044;14.416;2023-04-15T03:43:48;5.30;99.90
38359;DHT22;42072;48.044;14.416;2023-04-15T03:46:18;5.20;99.90
38359;DHT22;42072;48.044;14.416;2023-04-15T03:48:46;5.30;99.90
38359;DHT22;42072;48.044;14.416;2023-04-15T03:51:14;5.30;99.90
38359;DHT22;42072;48.044;14.416;2023-04-15T03:53:42;5.30;99.90
38359;DHT22;42072;48.044;14.416;2023-04-15T03:56:09;5.20;99.90
38359;DHT22;42072;48.044;14.416;2023-04-15T03:58:36;5.20;99.90
38359;DHT22;42072;48.044;14.416;2023-04-15T04:01:03;5.30;99.90
38359;DHT22;42072;48.044;14.416;2023-04-15T04:03:31;5.30;99.90
38359;DHT22;42072;48.044;14.416;2023-04-15T04:05:59;5.30;99.90
38359;DHT22;42072;48.044;14.416;2023-04-15T04:08:26;5.30;99.90
38359;DHT22;42072;48.044;14.416;2023-04-15T04:10:54;5.30;99.90
38359;DHT22;42072;48.044;14.416;2023-04-15T04:13:21;5.30;99.90
38359;DHT22;42072;48.044;14.416;2023-04-15T04:15:48;5.40;99.90
38359;DHT22;42072;48.044;14.416;2023-04-15T04:18:15;5.30;99.90
38359;DHT22;42072;48.044;14.416;2023-04-15T04:20:43;5.30;99.90
38359;DHT22;42072;48.044;14.416;2023-04-15T04:23:10;5.30;99.90
38359;DHT22;42072;48.044;14.416;2023-04-15T04:25:37;5.30;99.90
38359;DHT22;42072;48.044;14.416;2023-04-15T04:28:05;5.30;99.90
38359;DHT22;42072;48.044;14.416;2023-04-15T04:30:32;5.30;99.90
38359;DHT22;42072;48.044;14.416;2023-04-15T04:32:59;5.30;99.90
38359;DHT22;42072;48.044;14.416;2023-04-15T04:35:26;5.30;99.90
38359;DHT22;42072;48.044;14.416;2023-04-15T04:37:54;5.30;99.90
38359;DHT22;42072;48.044;14.416;2023-04-15T04:40:21;5.30;99.90
38359;DHT22;42072;48.044;14.416;2023-04-15T04:42:49;5.30;99.90
38359;DHT22;42072;48.044;14.416;2023-04-15T04:45:16;5.40;99.90
38359;DHT22;42072;48.044;14.416;2023-04-15T04:47:44;5.30;99.90
38359;DHT22;42072;48.044;14.416;2023-04-15T04:50:12;5.30;99.90
38359;DHT22;42072;48.044;14.416;2023-04-15T04:52:39;5.30;99.90
38359;DHT22;42072;48.044;14.416;2023-04-15T04:55:07;5.30;99.90
38359;DHT22;42072;48.044;14.416;2023-04-15T04:57:34;5.40;99.90
38359;DHT22;42072;48.044;14.416;2023-04-15T05:00:02;5.40;99.90
38359;DHT22;42072;48.044;14.416;2023-04-15T05:02:30;5.40;99.90
38359;DHT22;42072;48.044;14.416;2023-04-15T05:04:58;5.40;99.90
38359;DHT22;42072;48.044;14.416;2023-04-15T05:07:25;5.50;99.90
38359;DHT22;42072;48.044;14.416;2023-04-15T05:09:53;5.50;99.90
38359;DHT22;42072;48.044;14.416;2023-04-15T05:12:20;5.50;99.90
38359;DHT22;42072;48.044;14.416;2023-04-15T05:14:48;5.50;99.90
38359;DHT22;42072;48.044;14.416;2023-04-15T05:17:15;5.50;92.20
38359;DHT22;42072;48.044;14.416;2023-04-15T05:19:42;5.50;92.10
38359;DHT22;42072;48.044;14.416;2023-04-15T05:22:09;5.50;49.20
38359;DHT22;42072;48.044;14.416;2023-04-15T05:24:36;5.50;50.70
38359;DHT22;42072;48.044;14.416;2023-04-15T05:27:03;5.50;61.00
38359;DHT22;42072;48.044;14.416;2023-04-15T05:29:31;5.40;74.60
38359;DHT22;42072;48.044;14.416;2023-04-15T05:31:58;5.50;93.10
38359;DHT22;42072;48.044;14.416;2023-04-15T05:34:26;5.50;99.90
38359;DHT22;42072;48.044;14.416;2023-04-15T05:36:53;5.40;99.90
38359;DHT22;42072;48.044;14.416;2023-04-15T05:39:20;5.40;99.90
38359;DHT22;42072;48.044;14.416;2023-04-15T05:41:48;5.50;99.90
38359;DHT22;42072;48.044;14.416;2023-04-15T05:44:15;5.40;99.90
38359;DHT22;42072;48.044;14.416;2023-04-15T05:46:42;5.40;99.90
38359;DHT22;42072;48.044;14.416;2023-04-15T05:49:10;5.40;99.90
38359;DHT22;42072;48.044;14.416;2023-04-15T05:51:37;5.50;99.90
38359;DHT22;42072;48.044;14.416;2023-04-15T05:54:04;5.50;99.90
38359;DHT22;42072;48.044;14.416;2023-04-15T05:56:31;5.60;99.90
38359;DHT22;42072;48.044;14.416;2023-04-15T05:58:59;5.60;99.90
38359;DHT22;42072;48.044;14.416;2023-04-15T06:01:26;5.60;99.90
38359;DHT22;42072;48.044;14.416;2023-04-15T06:03:53;5.70;99.90
38359;DHT22;42072;48.044;14.416;2023-04-15T06:06:21;5.70;99.90
38359;DHT22;42072;48.044;14.416;2023-04-15T06:08:48;5.70;99.90
38359;DHT22;42072;48.044;14.416;2023-04-15T06:11:16;5.80;99.90
38359;DHT22;42072;48.044;14.416;2023-04-15T06:13:43;5.70;99.90
38359;DHT22;42072;48.044;14.416;2023-04-15T06:16:10;5.70;99.90
38359;DHT22;42072;48.044;14.416;2023-04-15T06:18:37;5.80;99.90
38359;DHT22;42072;48.044;14.416;2023-04-15T06:21:05;5.80;99.90
38359;DHT22;42072;48.044;14.416;2023-04-15T06:23:35;5.80;99.90
38359;DHT22;42072;48.044;14.416;2023-04-15T06:26:03;5.80;99.90
38359;DHT22;42072;48.044;14.416;2023-04-15T06:28:30;5.80;99.90
38359;DHT22;42072;48.044;14.416;2023-04-15T06:30:57;5.90;99.90
38359;DHT22;42072;48.044;14.416;2023-04-15T06:33:24;5.90;99.90
38359;DHT22;42072;48.044;14.416;2023-04-15T06:35:52;6.00;99.90
38359;DHT22;42072;48.044;14.416;2023-04-15T06:38:19;6.00;99.90
38359;DHT22;42072;48.044;14.416;2023-04-15T06:40:46;6.00;99.90
38359;DHT22;42072;48.044;14.416;2023-04-15T06:43:13;5.90;99.90
38359;DHT22;42072;48.044;14.416;2023-04-15T06:45:41;6.00;99.90
38359;DHT22;42072;48.044;14.416;2023-04-15T06:48:08;6.00;99.90
38359;DHT22;42072;48.044;14.416;2023-04-15T06:50:35;6.00;99.90
38359;DHT22;42072;48.044;14.416;2023-04-15T06:53:02;6.10;99.90
38359;DHT22;42072;48.044;14.416;2023-04-15T06:55:30;6.10;99.90
38359;DHT22;42072;48.044;14.416;2023-04-15T06:57:57;6.20;99.90
38359;DHT22;42072;48.044;14.416;2023-04-15T07:00:24;6.20;99.90
38359;DHT22;42072;48.044;14.416;2023-04-15T07:02:52;6.30;99.90
38359;DHT22;42072;48.044;14.416;2023-04-15T07:05:21;6.30;99.30
38359;DHT22;42072;48.044;14.416;2023-04-15T07:07:48;6.30;93.20
38359;DHT22;42072;48.044;14.416;2023-04-15T07:10:16;6.40;80.50
38359;DHT22;42072;48.044;14.416;2023-04-15T07:12:43;6.40;19.10
38359;DHT22;42072;48.044;14.416;2023-04-15T07:15:10;6.50;15.60
38359;DHT22;42072;48.044;14.416;2023-04-15T07:17:39;6.60;9.30
38359;DHT22;42072;48.044;14.416;2023-04-15T07:20:07;6.60;2.60
38359;DHT22;42072;48.044;14.416;2023-04-15T07:22:34;6.60;1.00
38359;DHT22;42072;48.044;14.416;2023-04-15T07:25:01;6.60;1.00
38359;DHT22;42072;48.044;14.416;2023-04-15T07:27:28;6.60;1.00
38359;DHT22;42072;48.044;14.416;2023-04-15T07:29:56;6.60;1.00
38359;DHT22;42072;48.044;14.416;2023-04-15T07:32:23;6.60;1.00
38359;DHT22;42072;48.044;14.416;2023-04-15T07:34:50;6.60;1.00
38359;DHT22;42072;48.044;14.416;2023-04-15T07:37:17;6.60;1.00
38359;DHT22;42072;48.044;14.416;2023-04-15T07:39:45;6.50;1.00
38359;DHT22;42072;48.044;14.416;2023-04-15T07:42:13;6.50;1.00
38359;DHT22;42072;48.044;14.416;2023-04-15T07:44:41;6.50;1.00
38359;DHT22;42072;48.044;14.416;2023-04-15T07:47:08;6.50;1.00
38359;DHT22;42072;48.044;14.416;2023-04-15T07:49:35;6.60;1.00
38359;DHT22;42072;48.044;14.416;2023-04-15T07:52:04;6.70;1.00
38359;DHT22;42072;48.044;14.416;2023-04-15T07:54:31;6.70;1.00
38359;DHT22;42072;48.044;14.416;2023-04-15T07:56:59;6.70;1.00
38359;DHT22;42072;48.044;14.416;2023-04-15T07:59:26;6.70;1.00
38359;DHT22;42072;48.044;14.416;2023-04-15T08:01:55;6.60;1.00
38359;DHT22;42072;48.044;14.416;2023-04-15T08:04:23;6.60;1.00
38359;DHT22;42072;48.044;14.416;2023-04-15T08:06:51;6.60;1.00
38359;DHT22;42072;48.044;14.416;2023-04-15T08:09:19;6.50;1.00
38359;DHT22;42072;48.044;14.416;2023-04-15T08:11:48;6.50;1.00
38359;DHT22;42072;48.044;14.416;2023-04-15T08:14:15;6.40;1.00
38359;DHT22;42072;48.044;14.416;2023-04-15T08:16:42;6.30;1.00
38359;DHT22;42072;48.044;14.416;2023-04-15T08:19:10;6.30;1.00
38359;DHT22;42072;48.044;14.416;2023-04-15T08:21:37;6.30;1.00
38359;DHT22;42072;48.044;14.416;2023-04-15T08:24:05;6.30;1.00
38359;DHT22;42072;48.044;14.416;2023-04-15T08:26:32;6.40;1.00
38359;DHT22;42072;48.044;14.416;2023-04-15T08:29:00;6.50;1.00
38359;DHT22;42072;48.044;14.416;2023-04-15T08:31:28;6.50;1.00
38359;DHT22;42072;48.044;14.416;2023-04-15T08:33:56;6.60;1.00
38359;DHT22;42072;48.044;14.416;2023-04-15T08:36:24;6.60;1.00
38359;DHT22;42072;48.044;14.416;2023-04-15T08:38:51;6.60;1.00
38359;DHT22;42072;48.044;14.416;2023-04-15T08:41:24;6.60;1.00
38359;DHT22;42072;48.044;14.416;2023-04-15T08:43:57;6.60;1.00
38359;DHT22;42072;48.044;14.416;2023-04-15T08:46:26;6.50;1.00
38359;DHT22;42072;48.044;14.416;2023-04-15T08:48:56;6.40;1.00
38359;DHT22;42072;48.044;14.416;2023-04-15T08:51:25;6.40;1.00
38359;DHT22;42072;48.044;14.416;2023-04-15T08:53:54;6.30;1.00
38359;DHT22;42072;48.044;14.416;2023-04-15T08:56:25;6.30;1.00
38359;DHT22;42072;48.044;14.416;2023-04-15T08:58:52;6.30;1.00
38359;DHT22;42072;48.044;14.416;2023-04-15T09:01:20;6.30;1.00
38359;DHT22;42072;48.044;14.416;2023-04-15T09:03:49;6.40;1.00
38359;DHT22;42072;48.044;14.416;2023-04-15T09:06:17;6.50;1.00
38359;DHT22;42072;48.044;14.416;2023-04-15T09:08:45;6.70;1.00
38359;DHT22;42072;48.044;14.416;2023-04-15T09:11:12;6.80;1.00
38359;DHT22;42072;48.044;14.416;2023-04-15T09:13:39;6.90;1.00
38359;DHT22;42072;48.044;14.416;2023-04-15T09:16:07;7.00;1.00
38359;DHT22;42072;48.044;14.416;2023-04-15T09:18:35;7.00;1.00
38359;DHT22;42072;48.044;14.416;2023-04-15T09:21:07;7.10;1.00
38359;DHT22;42072;48.044;14.416;2023-04-15T09:23:36;7.10;1.00
38359;DHT22;42072;48.044;14.416;2023-04-15T09:26:04;7.10;1.00
38359;DHT22;42072;48.044;14.416;2023-04-15T09:28:32;7.10;1.00
38359;DHT22;42072;48.044;14.416;2023-04-15T09:31:01;7.10;1.00
38359;DHT22;42072;48.044;14.416;2023-04-15T09:33:29;7.00;1.00
38359;DHT22;42072;48.044;14.416;2023-04-15T09:36:04;6.90;1.00
38359;DHT22;42072;48.044;14.416;2023-04-15T09:38:32;6.90;1.00
38359;DHT22;42072;48.044;14.416;2023-04-15T09:41:00;6.90;1.00
38359;DHT22;42072;48.044;14.416;2023-04-15T09:43:37;6.90;1.00
38359;DHT22;42072;48.044;14.416;2023-04-15T09:46:05;7.00;1.00
38359;DHT22;42072;48.044;14.416;2023-04-15T09:48:33;7.10;1.00
38359;DHT22;42072;48.044;14.416;2023-04-15T09:51:00;7.20;1.00
38359;DHT22;42072;48.044;14.416;2023-04-15T09:53:28;7.20;1.00
38359;DHT22;42072;48.044;14.416;2023-04-15T09:55:59;7.30;1.00
38359;DHT22;42072;48.044;14.416;2023-04-15T09:58:31;7.50;1.00
38359;DHT22;42072;48.044;14.416;2023-04-15T10:01:01;7.50;1.00
38359;DHT22;42072;48.044;14.416;2023-04-15T10:03:32;7.40;1.00
38359;DHT22;42072;48.044;14.416;2023-04-15T10:06:01;7.40;1.00
38359;DHT22;42072;48.044;14.416;2023-04-15T10:08:32;7.30;1.00
38359;DHT22;42072;48.044;14.416;2023-04-15T10:11:01;7.40;1.00
38359;DHT22;42072;48.044;14.416;2023-04-15T10:13:30;7.30;1.00
38359;DHT22;42072;48.044;14.416;2023-04-15T10:16:06;7.30;1.00
38359;DHT22;42072;48.044;14.416;2023-04-15T10:18:50;7.60;99.90
38359;DHT22;42072;48.044;14.416;2023-04-15T10:21:21;7.80;99.90
38359;DHT22;42072;48.044;14.416;2023-04-15T10:23:49;8.00;99.90
38359;DHT22;42072;48.044;14.416;2023-04-15T10:26:17;8.10;99.90
38359;DHT22;42072;48.044;14.416;2023-04-15T10:28:45;8.20;99.90
38359;DHT22;42072;48.044;14.416;2023-04-15T10:31:15;8.20;99.90
38359;DHT22;42072;48.044;14.416;2023-04-15T10:33:45;8.10;99.90
38359;DHT22;42072;48.044;14.416;2023-04-15T10:36:14;8.00;99.90
38359;DHT22;42072;48.044;14.416;2023-04-15T10:38:44;8.10;99.90
38359;DHT22;42072;48.044;14.416;2023-04-15T10:41:24;8.10;99.90
38359;DHT22;42072;48.044;14.416;2023-04-15T10:43:53;8.00;99.90
38359;DHT22;42072;48.044;14.416;2023-04-15T10:46:45;7.90;99.90
38359;DHT22;42072;48.044;14.416;2023-04-15T10:49:23;7.90;99.90
38359;DHT22;42072;48.044;14.416;2023-04-15T10:51:54;7.80;99.90
38359;DHT22;42072;48.044;14.416;2023-04-15T10:56:52;7.80;99.90
38359;DHT22;42072;48.044;14.416;2023-04-15T10:59:37;7.80;99.90
38359;DHT22;42072;48.044;14.416;2023-04-15T11:02:06;7.90;99.90
38359;DHT22;42072;48.044;14.416;2023-04-15T11:04:58;7.90;99.90
38359;DHT22;42072;48.044;14.416;2023-04-15T11:12:58;8.10;99.90
38359;DHT22;42072;48.044;14.416;2023-04-15T11:20:33;7.80;99.90
38359;DHT22;42072;48.044;14.416;2023-04-15T11:23:01;8.00;99.90
38359;DHT22;42072;48.044;14.416;2023-04-15T11:25:40;8.00;99.90
38359;DHT22;42072;48.044;14.416;2023-04-15T11:28:11;8.20;99.90
38359;DHT22;42072;48.044;14.416;2023-04-15T11:30:39;8.20;99.90
38359;DHT22;42072;48.044;14.416;2023-04-15T11:33:08;8.40;99.90
38359;DHT22;42072;48.044;14.416;2023-04-15T11:35:35;8.40;99.90
38359;DHT22;42072;48.044;14.416;2023-04-15T11:38:04;8.40;99.90
38359;DHT22;42072;48.044;14.416;2023-04-15T11:40:32;8.30;99.90
38359;DHT22;42072;48.044;14.416;2023-04-15T11:43:05;8.30;99.90
38359;DHT22;42072;48.044;14.416;2023-04-15T11:45:34;8.40;99.90
38359;DHT22;42072;48.044;14.416;2023-04-15T11:48:07;8.40;99.90
38359;DHT22;42072;48.044;14.416;2023-04-15T11:50:35;8.40;99.90
38359;DHT22;42072;48.044;14.416;2023-04-15T11:53:04;8.30;99.90
38359;DHT22;42072;48.044;14.416;2023-04-15T11:58:14;8.60;99.90
38359;DHT22;42072;48.044;14.416;2023-04-15T12:03:29;8.80;99.90
38359;DHT22;42072;48.044;14.416;2023-04-15T12:06:11;8.80;99.90
38359;DHT22;42072;48.044;14.416;2023-04-15T12:11:35;8.50;99.90
38359;DHT22;42072;48.044;14.416;2023-04-15T12:14:09;8.30;99.90
38359;DHT22;42072;48.044;14.416;2023-04-15T12:16:43;8.20;99.90
38359;DHT22;42072;48.044;14.416;2023-04-15T12:19:24;8.20;99.90
38359;DHT22;42072;48.044;14.416;2023-04-15T12:21:56;8.10;99.90
38359;DHT22;42072;48.044;14.416;2023-04-15T12:24:27;8.00;99.90
38359;DHT22;42072;48.044;14.416;2023-04-15T12:27:00;8.00;99.90
38359;DHT22;42072;48.044;14.416;2023-04-15T12:29:29;8.00;99.90
38359;DHT22;42072;48.044;14.416;2023-04-15T12:32:03;8.10;1.00
38359;DHT22;42072;48.044;14.416;2023-04-15T12:34:32;8.30;1.00
38359;DHT22;42072;48.044;14.416;2023-04-15T12:37:02;8.40;99.90
38359;DHT22;42072;48.044;14.416;2023-04-15T12:39:33;8.40;99.90
38359;DHT22;42072;48.044;14.416;2023-04-15T12:42:03;8.30;99.90
38359;DHT22;42072;48.044;14.416;2023-04-15T12:44:32;8.10;99.90
38359;DHT22;42072;48.044;14.416;2023-04-15T12:46:59;8.00;1.00
38359;DHT22;42072;48.044;14.416;2023-04-15T12:49:27;7.90;1.00
38359;DHT22;42072;48.044;14.416;2023-04-15T12:51:56;7.70;1.00
38359;DHT22;42072;48.044;14.416;2023-04-15T12:54:23;7.70;1.00
38359;DHT22;42072;48.044;14.416;2023-04-15T12:56:52;7.60;1.00
38359;DHT22;42072;48.044;14.416;2023-04-15T12:59:22;7.60;1.00
38359;DHT22;42072;48.044;14.416;2023-04-15T13:01:50;7.60;1.00
38359;DHT22;42072;48.044;14.416;2023-04-15T13:04:20;7.70;1.00
38359;DHT22;42072;48.044;14.416;2023-04-15T13:06:48;7.70;1.00
38359;DHT22;42072;48.044;14.416;2023-04-15T13:09:24;7.70;1.00
38359;DHT22;42072;48.044;14.416;2023-04-15T13:11:52;7.70;1.00
38359;DHT22;42072;48.044;14.416;2023-04-15T13:14:20;7.70;1.00
38359;DHT22;42072;48.044;14.416;2023-04-15T13:16:47;7.80;1.00
38359;DHT22;42072;48.044;14.416;2023-04-15T13:19:14;7.80;1.00
38359;DHT22;42072;48.044;14.416;2023-04-15T13:21:42;7.80;1.00
38359;DHT22;42072;48.044;14.416;2023-04-15T13:24:09;7.90;1.00
38359;DHT22;42072;48.044;14.416;2023-04-15T13:26:36;7.80;1.00
38359;DHT22;42072;48.044;14.416;2023-04-15T13:29:04;7.80;1.00
38359;DHT22;42072;48.044;14.416;2023-04-15T13:31:31;7.80;1.00
38359;DHT22;42072;48.044;14.416;2023-04-15T13:33:59;7.90;1.00
38359;DHT22;42072;48.044;14.416;2023-04-15T13:36:29;7.90;1.00
38359;DHT22;42072;48.044;14.416;2023-04-15T13:38:57;7.80;1.00
38359;DHT22;42072;48.044;14.416;2023-04-15T13:41:25;7.80;1.00
38359;DHT22;42072;48.044;14.416;2023-04-15T13:43:53;7.70;1.00
38359;DHT22;42072;48.044;14.416;2023-04-15T13:46:20;7.70;1.00
38359;DHT22;42072;48.044;14.416;2023-04-15T13:48:48;7.60;1.00
38359;DHT22;42072;48.044;14.416;2023-04-15T13:51:16;7.70;1.00
38359;DHT22;42072;48.044;14.416;2023-04-15T13:53:43;7.60;1.00
38359;DHT22;42072;48.044;14.416;2023-04-15T13:56:10;7.70;1.00
38359;DHT22;42072;48.044;14.416;2023-04-15T13:58:39;7.60;1.00
38359;DHT22;42072;48.044;14.416;2023-04-15T14:01:07;7.60;1.00
38359;DHT22;42072;48.044;14.416;2023-04-15T14:03:35;7.50;1.00
38359;DHT22;42072;48.044;14.416;2023-04-15T14:06:04;7.50;1.00
38359;DHT22;42072;48.044;14.416;2023-04-15T14:08:32;7.60;1.00
38359;DHT22;42072;48.044;14.416;2023-04-15T14:11:00;7.60;1.00
38359;DHT22;42072;48.044;14.416;2023-04-15T14:13:27;7.70;1.00
38359;DHT22;42072;48.044;14.416;2023-04-15T14:15:56;7.70;1.00
38359;DHT22;42072;48.044;14.416;2023-04-15T14:18:24;7.70;1.00
38359;DHT22;42072;48.044;14.416;2023-04-15T14:20:51;7.70;1.00
38359;DHT22;42072;48.044;14.416;2023-04-15T14:23:19;7.60;1.00
38359;DHT22;42072;48.044;14.416;2023-04-15T14:25:47;7.50;1.00
38359;DHT22;42072;48.044;14.416;2023-04-15T14:28:14;7.50;1.00
38359;DHT22;42072;48.044;14.416;2023-04-15T14:30:42;7.60;1.00
38359;DHT22;42072;48.044;14.416;2023-04-15T14:33:10;7.60;1.00
38359;DHT22;42072;48.044;14.416;2023-04-15T14:35:38;7.50;1.00
38359;DHT22;42072;48.044;14.416;2023-04-15T14:38:05;7.50;1.00
38359;DHT22;42072;48.044;14.416;2023-04-15T14:40:37;7.50;1.00
38359;DHT22;42072;48.044;14.416;2023-04-15T14:43:05;7.50;1.00
38359;DHT22;42072;48.044;14.416;2023-04-15T14:45:32;7.50;1.00
38359;DHT22;42072;48.044;14.416;2023-04-15T14:48:00;7.60;1.00
38359;DHT22;42072;48.044;14.416;2023-04-15T14:50:28;7.70;1.00
38359;DHT22;42072;48.044;14.416;2023-04-15T14:52:57;7.60;1.00
38359;DHT22;42072;48.044;14.416;2023-04-15T14:55:25;7.60;1.00
38359;DHT22;42072;48.044;14.416;2023-04-15T14:57:52;7.50;1.00
38359;DHT22;42072;48.044;14.416;2023-04-15T15:00:20;7.60;1.00
38359;DHT22;42072;48.044;14.416;2023-04-15T15:02:48;7.50;1.00
38359;DHT22;42072;48.044;14.416;2023-04-15T15:05:16;7.40;1.00
38359;DHT22;42072;48.044;14.416;2023-04-15T15:07:44;7.40;1.00
38359;DHT22;42072;48.044;14.416;2023-04-15T15:10:12;7.40;1.00
38359;DHT22;42072;48.044;14.416;2023-04-15T15:12:39;7.40;1.00
38359;DHT22;42072;48.044;14.416;2023-04-15T15:15:07;7.50;1.00
38359;DHT22;42072;48.044;14.416;2023-04-15T15:17:54;7.40;1.00
38359;DHT22;42072;48.044;14.416;2023-04-15T15:20:23;7.40;1.00
38359;DHT22;42072;48.044;14.416;2023-04-15T15:22:51;7.40;1.00
38359;DHT22;42072;48.044;14.416;2023-04-15T15:25:19;7.40;1.00
38359;DHT22;42072;48.044;14.416;2023-04-15T15:27:48;7.30;1.00
38359;DHT22;42072;48.044;14.416;2023-04-15T15:30:15;7.30;1.00
38359;DHT22;42072;48.044;14.416;2023-04-15T15:32:42;7.30;1.00
38359;DHT22;42072;48.044;14.416;2023-04-15T15:35:10;7.30;1.00
38359;DHT22;42072;48.044;14.416;2023-04-15T15:37:37;7.30;1.00
38359;DHT22;42072;48.044;14.416;2023-04-15T15:40:05;7.30;1.00
38359;DHT22;42072;48.044;14.416;2023-04-15T15:42:34;7.40;1.00
38359;DHT22;42072;48.044;14.416;2023-04-15T15:45:03;7.40;1.00
38359;DHT22;42072;48.044;14.416;2023-04-15T15:47:30;7.40;1.00
38359;DHT22;42072;48.044;14.416;2023-04-15T15:49:59;7.40;1.00
38359;DHT22;42072;48.044;14.416;2023-04-15T15:52:31;7.50;1.00
38359;DHT22;42072;48.044;14.416;2023-04-15T15:54:59;7.70;1.00
38359;DHT22;42072;48.044;14.416;2023-04-15T15:57:27;7.70;1.00
38359;DHT22;42072;48.044;14.416;2023-04-15T15:59:55;7.60;1.00
38359;DHT22;42072;48.044;14.416;2023-04-15T16:02:38;7.60;1.00
38359;DHT22;42072;48.044;14.416;2023-04-15T16:05:25;7.40;1.00
38359;DHT22;42072;48.044;14.416;2023-04-15T16:07:52;7.40;1.00